DW6366 Weather Reports


Display with metric or nautical units.
time (UTC)temp
F
wind
direction
speed
MPH
gust
MPH
rain 1hr
in
rain 24hr
in
rain mn
in
humidity
%
barometer
mb
20200714200237 61 291 2.0 8.0 0.00 0.31 0.06 76 1015.1
20200714195237 61 316 3.0 7.0 0.00 0.31 0.06 75 1015.2
20200714194226 61 304 2.0 11.0 0.00 0.31 0.06 76 1014.9
20200714193233 61 346 4.0 8.0 0.00 0.31 0.06 77 1014.9
20200714192243 62 315 1.0 11.0 0.00 0.31 0.06 77 1014.8
20200714190240 62 340 2.0 6.0 0.00 0.31 0.06 78 1014.7
20200714185237 62 81 1.0 6.0 0.00 0.31 0.06 79 1014.7
20200714184233 62 358 1.0 4.0 0.00 0.31 0.06 80 1014.6
20200714183225 63 294 2.0 9.0 0.00 0.31 0.06 80 1014.6
20200714182231 63 30 1.0 12.0 0.00 0.31 0.06 78 1014.6
20200714181237 63 314 3.0 9.0 0.00 0.31 0.06 78 1014.6
20200714180252 63 306 3.0 6.0 0.04 0.31 0.06 79 1014.6
20200714175239 64 342 2.0 7.0 0.04 0.31 0.06 79 1014.6
20200714174232 64 326 2.0 7.0 0.04 0.31 0.06 78 1014.5
20200714173224 64 319 3.0 6.0 0.04 0.31 0.06 79 1014.5
20200714172234 64 354 1.0 5.0 0.04 0.31 0.06 79 1014.5
20200714171237 64 304 3.0 9.0 0.04 0.31 0.06 79 1014.5
20200714170237 64 337 1.0 3.0 0.00 0.28 0.06 79 1014.4
20200714165230 64 14 1.0 8.0 0.00 0.28 0.06 80 1014.3
20200714164231 64 19 1.0 7.0 0.00 0.28 0.06 80 1014.4
20200714163239 64 340 1.0 7.0 0.00 0.28 0.06 80 1014.4
20200714162226 64 345 3.0 7.0 0.00 0.28 0.06 80 1014.4
20200714161228 64 319 3.0 9.0 0.00 0.28 0.06 80 1014.4
20200714160244 64 3 0.0 6.0 0.00 0.28 0.06 82 1014.2
20200714155222 64 342 1.0 8.0 0.00 0.28 0.06 81 1014.4
20200714154228 64 328 2.0 10.0 0.00 0.28 0.06 80 1014.4
20200714153233 64 272 1.0 10.0 0.00 0.28 0.06 82 1014.3
20200714152222 64 321 1.0 8.0 0.00 0.28 0.06 84 1014.4
20200714151230 64 315 1.0 3.0 0.00 0.28 0.06 86 1014.5
20200714150250 63 304 1.0 7.0 0.00 0.28 0.06 86 1014.6
20200714145221 63 358 1.0 4.0 0.00 0.28 0.06 86 1014.7
20200714144227 63 359 2.0 7.0 0.00 0.28 0.06 86 1014.7
20200714143233 64 359 1.0 5.0 0.00 0.28 0.06 86 1014.6
20200714142238 64 336 1.0 5.0 0.00 0.28 0.06 86 1014.5
20200714141230 63 26 2.0 8.0 0.04 0.28 0.06 91 1014.5
20200714140242 62 31 2.0 8.0 0.12 0.28 0.06 91 1014.7
20200714135233 61 304 3.0 8.0 0.16 0.28 0.06 90 1014.9
20200714134222 61 296 3.0 8.0 0.20 0.28 0.06 90 1014.8
20200714132234 62 349 6.0 14.0 0.20 0.28 0.06 90 1014.8
20200714131223 63 317 3.0 8.0 0.16 0.24 0.05 90 1014.7
20200714130301 63 304 2.0 8.0 0.08 0.16 0.03 90 1014.6
20200714125235 63 230 2.0 5.0 0.04 0.12 0.02 90 1014.7
20200714124228 63 259 2.0 5.0 0.00 0.08 0.02 89 1014.7
20200714123222 63 217 3.0 5.0 0.00 0.08 0.02 89 1014.7
20200714122229 63 171 3.0 6.0 0.00 0.08 0.02 89 1014.7
20200714121235 62 169 3.0 6.0 0.00 0.08 0.02 89 1014.8
20200714120249 62 148 3.0 6.0 0.00 0.08 0.02 89 1014.8
20200714115221 62 188 4.0 6.0 0.00 0.08 0.02 88 1014.9
20200714114229 63 229 4.0 9.0 0.00 0.08 0.02 87 1015.0
20200714112221 63 226 3.0 6.0 0.00 0.08 0.02 86 1015.0
20200714111232 63 224 3.0 8.0 0.00 0.08 0.02 85 1015.0
20200714110245 64 241 3.0 10.0 0.00 0.08 0.02 84 1015.0
20200714105236 64 208 4.0 9.0 0.00 0.08 0.02 83 1015.0
20200714104226 64 183 4.0 10.0 0.00 0.08 0.02 82 1015.0
20200714103234 64 232 4.0 10.0 0.00 0.08 0.02 79 1015.1
20200714102239 64 159 4.0 8.0 0.00 0.08 0.02 81 1015.0
20200714101227 63 247 4.0 8.0 0.00 0.08 0.02 84 1015.1
20200714100242 63 208 3.0 9.0 0.00 0.08 0.02 88 1015.2
20200714095231 64 222 4.0 8.0 0.00 0.08 0.02 89 1015.3
20200714094239 64 197 3.0 6.0 0.00 0.08 0.02 89 1015.4
20200714093226 63 196 5.0 9.0 0.04 0.08 0.02 88 1015.4
20200714092230 63 173 4.0 8.0 0.04 0.08 0.02 88 1015.4
20200714091235 64 245 4.0 6.0 0.08 0.08 0.02 88 1015.4
20200714090254 64 217 3.0 6.0 0.08 0.08 0.02 87 1015.5
20200714085225 64 208 2.0 5.0 0.08 0.08 0.02 87 1015.5
20200714084236 63 203 2.0 5.0 0.08 0.08 0.02 87 1015.4
20200714083226 63 244 3.0 5.0 0.04 0.04 0.01 87 1015.5
20200714082229 63 250 2.0 4.0 0.04 0.04 0.01 86 1015.5
20200714081238 63 229 2.0 5.0 0.00 0.00 0.00 85 1015.6
20200714080254 63 208 1.0 5.0 0.00 0.00 0.00 84 1015.6
20200714075226 63 217 2.0 5.0 0.00 0.00 0.00 84 1015.6
20200714074232 63 203 2.0 5.0 0.00 0.00 0.00 84 1015.6
20200714073224 63 203 3.0 6.0 0.00 0.00 0.00 83 1015.6
20200714071220 63 213 2.0 4.0 0.00 0.00 0.00 84 1015.6
20200714070237 62 275 1.0 3.0 0.00 0.00 0.00 84 1015.6
20200714065227 62 208 2.0 4.0 0.00 0.00 0.00 84 1015.7
20200714064234 62 184 1.0 3.0 0.00 0.00 0.00 84 1015.7
20200714063224 62 219 2.0 4.0 0.00 0.00 0.00 83 1015.8
20200714062235 62 221 1.0 3.0 0.00 0.00 0.00 84 1015.8
20200714061221 62 213 1.0 3.0 0.00 0.00 0.00 84 1015.9
20200714060244 62 276 1.0 3.0 0.00 0.00 0.00 83 1016.0
20200714055230 62 188 2.0 3.0 0.00 0.00 0.00 85 1016.0
20200714054232 62 231 2.0 5.0 0.00 0.00 0.00 82 1016.0
20200714053222 62 194 2.0 4.0 0.00 0.00 0.00 82 1016.1
20200714052233 62 213 1.0 3.0 0.00 0.00 0.00 82 1016.1
20200714051231 62 232 2.0 3.0 0.00 0.00 0.00 81 1016.1
20200714050252 61 245 2.0 3.0 0.00 0.00 0.00 80 1016.2
20200714045239 61 213 2.0 6.0 0.00 0.00 0.00 81 1016.1
20200714044226 61 208 1.0 4.0 0.00 0.00 0.00 80 1016.2
20200714043235 61 246 2.0 5.0 0.00 0.00 0.00 80 1016.2
20200714042244 61 221 1.0 3.0 0.00 0.00 0.00 80 1016.2
20200714041225 61 203 2.0 4.0 0.00 0.00 0.00 80 1016.1
20200714040247 61 227 2.0 4.0 0.00 0.00 0.00 80 1016.2
20200714035222 62 213 2.0 4.0 0.00 0.00 0.00 80 1016.3
20200714034228 62 246 2.0 4.0 0.00 0.00 0.00 80 1016.3
20200714033233 62 243 2.0 4.0 0.00 0.00 0.00 80 1016.3
20200714032222 62 220 1.0 4.0 0.00 0.00 0.00 80 1016.3
20200714031232 62 203 1.0 3.0 0.00 0.00 0.00 80 1016.5
20200714030247 62 181 2.0 3.0 0.00 0.00 0.00 79 1016.5
20200714025233 62 196 1.0 3.0 0.00 0.00 0.00 79 1016.6
20200714024238 63 236 2.0 3.0 0.00 0.00 0.00 79 1016.8
20200714023223 63 218 2.0 3.0 0.00 0.00 0.00 79 1016.8
20200714022229 63 213 1.0 3.0 0.00 0.00 0.00 78 1016.9
20200714021236 63 203 1.0 3.0 0.00 0.00 0.00 78 1017.0
20200714020253 63 203 1.0 3.0 0.00 0.00 0.00 77 1017.2
20200714015227 63 235 1.0 3.0 0.00 0.00 0.00 78 1017.2
20200714014237 64 300 1.0 3.0 0.00 0.00 0.00 78 1017.3
20200714013223 64 218 1.0 3.0 0.00 0.00 0.00 77 1017.5
20200714012227 64 217 2.0 3.0 0.00 0.00 0.00 76 1017.5
20200714011238 64 232 2.0 3.0 0.00 0.00 0.00 76 1017.6
20200714010252 64 279 0.0 2.0 0.00 0.00 0.00 75 1017.8
20200714005226 64 281 1.0 4.0 0.00 0.00 0.00 75 1017.9
20200714004234 64 244 1.0 3.0 0.00 0.00 0.00 75 1017.9
20200714003223 64 231 2.0 4.0 0.00 0.00 0.00 74 1018.0
20200714002235 64 182 1.0 2.0 0.00 0.00 0.00 74 1018.0
20200714001221 64 238 1.0 3.0 0.00 0.00 0.00 73 1018.1
20200714000243 64 257 2.0 4.0 0.00 0.00 0.00 73 1018.2
20200713235248 64 221 2.0 3.0 0.00 0.00 0.00 72 1018.3
20200713234226 65 203 1.0 4.0 0.00 0.00 0.00 71 1018.3
20200713233233 65 213 2.0 3.0 0.00 0.00 0.00 71 1018.4
20200713232237 65 208 2.0 4.0 0.00 0.00 0.00 70 1018.4
20200713231226 65 222 1.0 4.0 0.00 0.00 0.00 70 1018.6
20200713230244 65 240 2.0 4.0 0.00 0.00 0.00 69 1018.7
20200713225232 65 213 2.0 4.0 0.00 0.00 0.00 69 1018.8
20200713224223 65 221 1.0 3.0 0.00 0.00 0.00 68 1018.9
20200713223231 66 273 1.0 2.0 0.00 0.00 0.00 65 1018.9
20200713222234 66 273 1.0 2.0 0.00 0.00 0.00 64 1018.9
20200713221225 66 276 1.0 3.0 0.00 0.00 0.00 62 1019.0
20200713215732 66 261 2.0 6.0 0.00 0.00 0.00 62 1019.1
20200713214221 66 261 1.0 3.0 0.00 0.00 0.00 63 1019.2
20200713213230 67 250 1.0 3.0 0.00 0.00 0.00 61 1019.2
20200713212234 67 273 1.0 3.0 0.00 0.00 0.00 60 1019.4
20200713211233 67 239 1.0 4.0 0.00 0.00 0.00 60 1019.5
20200713210234 67 221 1.0 3.0 0.00 0.00 0.00 60 1019.5
20200713205230 67 282 2.0 3.0 0.00 0.00 0.00 59 1019.6
20200713204221 67 285 1.0 3.0 0.00 0.00 0.00 60 1019.6
20200713203231 67 273 1.0 4.0 0.00 0.00 0.00 61 1019.7
20200713202236 68 198 1.0 2.0 0.00 0.00 0.00 60 1019.8
20200713201223 68 266 1.0 4.0 0.00 0.00 0.00 58 1019.8